Boston Trader — 9V2388 — position and weather

sailwx.info

Track history (hours):
 
Tides and Currents Weather Stations Pressure Air Temp Water Temp Dewpoint Dewpoint Depression Visibility Wind Speed Wind Dir Waves Ship Positions

Boston Trader

Last reported at 2018-Jun-17 21:25 UTC. Time now 2018-Jun-17 21:42 UTC.
Position N 35°47' W 000°35'.

Length 147 m; draft 6.9 m.

Type: Ship. MMSI: 563717000.

Date/timePositionNaut miles runAvg speedWind from/ knotsBaromVisibWave heightAir tempDewpointWater temp
2018-Jun-17 21:25N 35°47' W 000°35'4 8.5
2018-Jun-17 21:00N 35°50' W 000°35'1010.1
2018-Jun-17 20:01N 35°59' W 000°30'012.0
2018-Jun-17 20:00N 35°60' W 000°30'612.6
2018-Jun-17 19:30N 36°06' W 000°27'613.1
2018-Jun-17 19:00N 36°12' W 000°25'713.3
2018-Jun-17 18:30N 36°18' W 000°23'713.4
2018-Jun-17 18:00N 36°25' W 000°21'2013.3
2018-Jun-17 16:31N 36°44' W 000°15'014.2
2018-Jun-17 16:30N 36°44' W 000°15'713.2
2018-Jun-17 16:00N 36°51' W 000°14'713.0
2018-Jun-17 15:27N 36°58' W 000°12'612.8
2018-Jun-17 14:59N 37°03' W 000°10'612.9
2018-Jun-17 14:30N 37°09' W 000°08'612.8
2018-Jun-17 14:00N 37°16' W 000°06'612.6
2018-Jun-17 13:30N 37°22' W 000°04'612.7
2018-Jun-17 13:00N 37°28' W 000°02'612.8
2018-Jun-17 12:30N 37°34' W 000°01'712.9
2018-Jun-17 11:59N 37°41' E 000°01'612.7
2018-Jun-17 11:30N 37°47' E 000°03'713.0
2018-Jun-17 10:57N 37°54' E 000°05'613.0
2018-Jun-17 10:30N 37°59' E 000°07'612.9
2018-Jun-17 10:00N 38°06' E 000°08'912.9
2018-Jun-17 09:18N 38°14' E 000°11'613.1
2018-Jun-17 08:49N 38°21' E 000°13'513.0
2018-Jun-17 08:28N 38°25' E 000°14'2013.1
2018-Jun-17 06:57N 38°43' E 000°23'15713.4
2018-Jun-16 19:11N 41°03' E 001°59'213.3
2018-Jun-16 19:00N 41°05' E 002°00'713.2
2018-Jun-16 18:30N 41°10' E 002°05'713.6
2018-Jun-16 18:00N 41°16' E 002°10'3 5.7
2018-Jun-16 17:30N 41°19' E 002°09'0 0.1
2018-Jun-16 16:59N 41°19' E 002°09'0 0.0
2018-Jun-16 16:26N 41°19' E 002°09'0 0.0
2018-Jun-16 15:59N 41°19' E 002°09'0 0.1
2018-Jun-16 15:26N 41°19' E 002°09'0 0.2
2018-Jun-16 14:59N 41°19' E 002°09'0 0.1
2018-Jun-16 14:29N 41°19' E 002°09'0 0.0
2018-Jun-16 13:59N 41°19' E 002°09'0 0.0
2018-Jun-16 13:29N 41°19' E 002°09'0 0.0
2018-Jun-16 12:59N 41°19' E 002°09'0 0.0
2018-Jun-16 12:29N 41°19' E 002°09'0 0.0
2018-Jun-16 11:59N 41°19' E 002°09'0 0.0
2018-Jun-16 11:29N 41°19' E 002°09'0 0.0
2018-Jun-16 10:59N 41°19' E 002°09'0 0.0
2018-Jun-16 10:29N 41°19' E 002°09'0 0.0
2018-Jun-16 09:59N 41°19' E 002°09'0 0.0
2018-Jun-16 09:29N 41°19' E 002°09'0 0.0
2018-Jun-16 08:59N 41°19' E 002°09'0 0.0
2018-Jun-16 08:29N 41°19' E 002°09'1 1.8
2018-Jun-16 08:01N 41°19' E 002°10'2 4.9
2018-Jun-16 07:31N 41°17' E 002°11'2 3.3
2018-Jun-16 07:01N 41°15' E 002°10'3 6.0
2018-Jun-16 06:30N 41°13' E 002°08'610.9
2018-Jun-16 06:00N 41°08' E 002°04'611.3
2018-Jun-16 05:30N 41°03' E 001°59'611.5
2018-Jun-16 05:00N 40°59' E 001°55'611.5
2018-Jun-16 04:29N 40°54' E 001°51'9912.2
2018-Jun-15 20:23N 39°26' E 000°53'613.0
2018-Jun-15 19:56N 39°20' E 000°49'613.1
2018-Jun-15 19:29N 39°15' E 000°46'713.2
2018-Jun-15 18:59N 39°09' E 000°43'613.4
2018-Jun-15 18:30N 39°03' E 000°39'713.2
2018-Jun-15 17:59N 38°57' E 000°36'613.3
2018-Jun-15 17:30N 38°51' E 000°33'713.6
2018-Jun-15 17:00N 38°45' E 000°29'713.3
2018-Jun-15 16:29N 38°38' E 000°26'613.1
2018-Jun-15 16:00N 38°32' E 000°22'713.0
2018-Jun-15 15:30N 38°26' E 000°20'713.3
2018-Jun-15 15:00N 38°20' E 000°18'713.3
2018-Jun-15 14:29N 38°13' E 000°16'613.4
2018-Jun-15 14:00N 38°07' E 000°14'713.3
2018-Jun-15 13:30N 38°00' E 000°12'713.7
2018-Jun-15 12:59N 37°53' E 000°10'613.5
2018-Jun-15 12:30N 37°47' E 000°08'713.7
2018-Jun-15 11:58N 37°40' E 000°05'713.6
2018-Jun-15 11:28N 37°33' E 000°03'614.1
2018-Jun-15 11:00N 37°27' E 000°01'713.9
2018-Jun-15 10:30N 37°20' W 000°01'713.9
2018-Jun-15 09:59N 37°13' W 000°04'713.7
2018-Jun-15 09:28N 37°06' W 000°06'613.7
2018-Jun-15 09:00N 37°00' W 000°08'713.6
2018-Jun-15 08:30N 36°54' W 000°10'713.5
2018-Jun-15 08:00N 36°47' W 000°11'713.3
2018-Jun-15 07:30N 36°41' W 000°13'713.4
2018-Jun-15 07:00N 36°34' W 000°16'613.1
2018-Jun-15 06:30N 36°28' W 000°18'713.1
2018-Jun-15 06:00N 36°21' W 000°20'713.6
2018-Jun-15 05:30N 36°15' W 000°21'713.8
2018-Jun-15 04:58N 36°08' W 000°24'1114.0
2018-Jun-15 04:11N 35°58' W 000°29'314.0
2018-Jun-15 03:57N 35°55' W 000°31'613.9
2018-Jun-15 03:29N 35°49' W 000°34'7 1.1
2018-Jun-14 20:47N 35°43' W 000°38'0 0.0
2018-Jun-14 20:29N 35°43' W 000°38'0 0.0
2018-Jun-14 19:59N 35°43' W 000°38'0 0.0
2018-Jun-13 17:17N 35°43' W 000°38'0 0.0
2018-Jun-13 16:47N 35°43' W 000°38'0 0.0
2018-Jun-13 16:23N 35°43' W 000°38'0 0.0
2018-Jun-13 15:59N 35°43' W 000°38'0 0.0
2018-Jun-13 15:23N 35°43' W 000°38'0 0.0
2018-Jun-13 14:53N 35°43' W 000°38'  
2018-Jun-10 07:23N 37°37' E 000°00'22713.8
2018-Jun-09 14:55N 41°05' E 002°01'513.2
2018-Jun-09 14:30N 41°09' E 002°05'612.6
2018-Jun-09 14:00N 41°15' E 002°09'4 8.9
2018-Jun-09 13:30N 41°19' E 002°09'0 0.4
2018-Jun-09 12:58N 41°19' E 002°09'0 0.0
2018-Jun-09 12:28N 41°19' E 002°09'0 0.0
2018-Jun-09 11:58N 41°19' E 002°09'0 0.0
2018-Jun-09 11:28N 41°19' E 002°09'0 0.0
2018-Jun-09 10:58N 41°19' E 002°09'0 0.0
2018-Jun-09 10:28N 41°19' E 002°09'0 0.0
2018-Jun-09 09:58N 41°19' E 002°09'0 0.0
2018-Jun-09 09:28N 41°19' E 002°09'0 0.0
2018-Jun-09 08:58N 41°19' E 002°09'0 0.0
2018-Jun-09 08:28N 41°19' E 002°09'0 0.0
2018-Jun-09 07:58N 41°19' E 002°09'0 0.0
2018-Jun-09 07:28N 41°19' E 002°09'0 0.0
2018-Jun-09 06:58N 41°19' E 002°09'0 0.0
2018-Jun-09 06:28N 41°19' E 002°09'0 0.0
2018-Jun-09 05:58N 41°19' E 002°09'0 0.0
2018-Jun-09 05:29N 41°19' E 002°09'2 3.9
2018-Jun-09 05:00N 41°17' E 002°11'4 7.7
2018-Jun-09 04:30N 41°14' E 002°14'4 7.5
2018-Jun-09 04:01N 41°12' E 002°18'0 0.5
2018-Jun-09 03:30N 41°12' E 002°17'0 0.2
2018-Jun-09 02:59N 41°12' E 002°17'0 0.1
2018-Jun-09 02:30N 41°12' E 002°17'0 0.1
2018-Jun-09 02:00N 41°12' E 002°17'0 0.3
2018-Jun-09 01:29N 41°12' E 002°17'0 0.4
2018-Jun-09 01:00N 41°12' E 002°17'0 0.2
2018-Jun-09 00:30N 41°12' E 002°17'0 0.5
2018-Jun-09 00:00N 41°13' E 002°17'0 0.6
2018-Jun-08 23:30N 41°13' E 002°16'0 0.5
2018-Jun-08 23:00N 41°13' E 002°16'0 0.5
2018-Jun-08 22:30N 41°13' E 002°16'0 0.6
2018-Jun-08 22:00N 41°13' E 002°15'0 0.7
2018-Jun-08 21:30N 41°13' E 002°15'0 0.7
2018-Jun-08 21:00N 41°13' E 002°14'0 0.6
2018-Jun-08 20:30N 41°13' E 002°14'0 0.6
2018-Jun-08 20:00N 41°13' E 002°13'0 0.7
2018-Jun-08 19:30N 41°13' E 002°13'0 0.7
2018-Jun-08 19:00N 41°13' E 002°13'0 0.8
2018-Jun-08 18:30N 41°13' E 002°12'1 1.0
2018-Jun-08 18:00N 41°13' E 002°11'1 1.0
2018-Jun-08 17:30N 41°13' E 002°11'1 1.1
2018-Jun-08 17:00N 41°12' E 002°10'1 1.1
2018-Jun-08 16:30N 41°12' E 002°09'1 1.1
2018-Jun-08 16:00N 41°12' E 002°09'2 4.5
2018-Jun-08 15:30N 41°11' E 002°06'713.1
2018-Jun-08 15:00N 41°05' E 002°01'612.9
2018-Jun-08 14:30N 40°60' E 001°57'712.9
2018-Jun-08 13:59N 40°54' E 001°52'14612.9
2018-Jun-08 02:44N 38°44' E 000°28'412.8
2018-Jun-08 02:26N 38°40' E 000°26'512.7
2018-Jun-08 02:00N 38°35' E 000°23'712.7
2018-Jun-08 01:29N 38°29' E 000°21'613.0
2018-Jun-08 01:00N 38°23' E 000°19'713.2
2018-Jun-08 00:30N 38°16' E 000°17'713.1
2018-Jun-08 00:00N 38°10' E 000°15'713.1
2018-Jun-07 23:30N 38°04' E 000°12'713.1
2018-Jun-07 23:00N 37°57' E 000°11'713.2
2018-Jun-07 22:30N 37°51' E 000°08'713.4
2018-Jun-07 21:59N 37°44' E 000°07'613.4
2018-Jun-07 21:30N 37°38' E 000°05'  
Track history (hours):
 
Tides and Currents Weather Stations Pressure Air Temp Water Temp Dewpoint Dewpoint Depression Visibility Wind Speed Wind Dir Waves Ship Positions

Boston Trader

Last reported at 2018-Jun-17 21:25 UTC. Time now 2018-Jun-17 21:42 UTC.
Position N 35°47' W 000°35'.

Length 147 m; draft 6.9 m.

Type: Ship. MMSI: 563717000.

Date/timePositionNaut miles runAvg speedWind from/ knotsBaromVisibWave heightAir tempDewpointWater temp
2018-Jun-17 21:25N 35°47' W 000°35'4 8.5
2018-Jun-17 21:00N 35°50' W 000°35'1010.1
2018-Jun-17 20:01N 35°59' W 000°30'012.0
2018-Jun-17 20:00N 35°60' W 000°30'612.6
2018-Jun-17 19:30N 36°06' W 000°27'613.1
2018-Jun-17 19:00N 36°12' W 000°25'713.3
2018-Jun-17 18:30N 36°18' W 000°23'713.4
2018-Jun-17 18:00N 36°25' W 000°21'2013.3
2018-Jun-17 16:31N 36°44' W 000°15'014.2
2018-Jun-17 16:30N 36°44' W 000°15'713.2
2018-Jun-17 16:00N 36°51' W 000°14'713.0
2018-Jun-17 15:27N 36°58' W 000°12'612.8
2018-Jun-17 14:59N 37°03' W 000°10'612.9
2018-Jun-17 14:30N 37°09' W 000°08'612.8
2018-Jun-17 14:00N 37°16' W 000°06'612.6
2018-Jun-17 13:30N 37°22' W 000°04'612.7
2018-Jun-17 13:00N 37°28' W 000°02'612.8
2018-Jun-17 12:30N 37°34' W 000°01'712.9
2018-Jun-17 11:59N 37°41' E 000°01'612.7
2018-Jun-17 11:30N 37°47' E 000°03'713.0
2018-Jun-17 10:57N 37°54' E 000°05'613.0
2018-Jun-17 10:30N 37°59' E 000°07'612.9
2018-Jun-17 10:00N 38°06' E 000°08'912.9
2018-Jun-17 09:18N 38°14' E 000°11'613.1
2018-Jun-17 08:49N 38°21' E 000°13'513.0
2018-Jun-17 08:28N 38°25' E 000°14'2013.1
2018-Jun-17 06:57N 38°43' E 000°23'15713.4
2018-Jun-16 19:11N 41°03' E 001°59'213.3
2018-Jun-16 19:00N 41°05' E 002°00'713.2
2018-Jun-16 18:30N 41°10' E 002°05'713.6
2018-Jun-16 18:00N 41°16' E 002°10'3 5.7
2018-Jun-16 17:30N 41°19' E 002°09'0 0.1
2018-Jun-16 16:59N 41°19' E 002°09'0 0.0
2018-Jun-16 16:26N 41°19' E 002°09'0 0.0
2018-Jun-16 15:59N 41°19' E 002°09'0 0.1
2018-Jun-16 15:26N 41°19' E 002°09'0 0.2
2018-Jun-16 14:59N 41°19' E 002°09'0 0.1
2018-Jun-16 14:29N 41°19' E 002°09'0 0.0
2018-Jun-16 13:59N 41°19' E 002°09'0 0.0
2018-Jun-16 13:29N 41°19' E 002°09'0 0.0
2018-Jun-16 12:59N 41°19' E 002°09'0 0.0
2018-Jun-16 12:29N 41°19' E 002°09'0 0.0
2018-Jun-16 11:59N 41°19' E 002°09'0 0.0
2018-Jun-16 11:29N 41°19' E 002°09'0 0.0
2018-Jun-16 10:59N 41°19' E 002°09'0 0.0
2018-Jun-16 10:29N 41°19' E 002°09'0 0.0
2018-Jun-16 09:59N 41°19' E 002°09'0 0.0
2018-Jun-16 09:29N 41°19' E 002°09'0 0.0
2018-Jun-16 08:59N 41°19' E 002°09'0 0.0
2018-Jun-16 08:29N 41°19' E 002°09'1 1.8
2018-Jun-16 08:01N 41°19' E 002°10'2 4.9
2018-Jun-16 07:31N 41°17' E 002°11'2 3.3
2018-Jun-16 07:01N 41°15' E 002°10'3 6.0
2018-Jun-16 06:30N 41°13' E 002°08'610.9
2018-Jun-16 06:00N 41°08' E 002°04'611.3
2018-Jun-16 05:30N 41°03' E 001°59'611.5
2018-Jun-16 05:00N 40°59' E 001°55'611.5
2018-Jun-16 04:29N 40°54' E 001°51'9912.2
2018-Jun-15 20:23N 39°26' E 000°53'613.0
2018-Jun-15 19:56N 39°20' E 000°49'613.1
2018-Jun-15 19:29N 39°15' E 000°46'713.2
2018-Jun-15 18:59N 39°09' E 000°43'613.4
2018-Jun-15 18:30N 39°03' E 000°39'713.2
2018-Jun-15 17:59N 38°57' E 000°36'613.3
2018-Jun-15 17:30N 38°51' E 000°33'713.6
2018-Jun-15 17:00N 38°45' E 000°29'713.3
2018-Jun-15 16:29N 38°38' E 000°26'613.1
2018-Jun-15 16:00N 38°32' E 000°22'713.0
2018-Jun-15 15:30N 38°26' E 000°20'713.3
2018-Jun-15 15:00N 38°20' E 000°18'713.3
2018-Jun-15 14:29N 38°13' E 000°16'613.4
2018-Jun-15 14:00N 38°07' E 000°14'713.3
2018-Jun-15 13:30N 38°00' E 000°12'713.7
2018-Jun-15 12:59N 37°53' E 000°10'613.5
2018-Jun-15 12:30N 37°47' E 000°08'713.7
2018-Jun-15 11:58N 37°40' E 000°05'713.6
2018-Jun-15 11:28N 37°33' E 000°03'614.1
2018-Jun-15 11:00N 37°27' E 000°01'713.9
2018-Jun-15 10:30N 37°20' W 000°01'713.9
2018-Jun-15 09:59N 37°13' W 000°04'713.7
2018-Jun-15 09:28N 37°06' W 000°06'613.7
2018-Jun-15 09:00N 37°00' W 000°08'713.6
2018-Jun-15 08:30N 36°54' W 000°10'713.5
2018-Jun-15 08:00N 36°47' W 000°11'713.3
2018-Jun-15 07:30N 36°41' W 000°13'713.4
2018-Jun-15 07:00N 36°34' W 000°16'613.1
2018-Jun-15 06:30N 36°28' W 000°18'713.1
2018-Jun-15 06:00N 36°21' W 000°20'713.6
2018-Jun-15 05:30N 36°15' W 000°21'713.8
2018-Jun-15 04:58N 36°08' W 000°24'1114.0
2018-Jun-15 04:11N 35°58' W 000°29'314.0
2018-Jun-15 03:57N 35°55' W 000°31'613.9
2018-Jun-15 03:29N 35°49' W 000°34'7 1.1
2018-Jun-14 20:47N 35°43' W 000°38'0 0.0
2018-Jun-14 20:29N 35°43' W 000°38'0 0.0
2018-Jun-14 19:59N 35°43' W 000°38'0 0.0
2018-Jun-13 17:17N 35°43' W 000°38'0 0.0
2018-Jun-13 16:47N 35°43' W 000°38'0 0.0
2018-Jun-13 16:23N 35°43' W 000°38'0 0.0
2018-Jun-13 15:59N 35°43' W 000°38'0 0.0
2018-Jun-13 15:23N 35°43' W 000°38'0 0.0
2018-Jun-13 14:53N 35°43' W 000°38'  
2018-Jun-10 07:23N 37°37' E 000°00'22713.8
2018-Jun-09 14:55N 41°05' E 002°01'513.2
2018-Jun-09 14:30N 41°09' E 002°05'612.6
2018-Jun-09 14:00N 41°15' E 002°09'4 8.9
2018-Jun-09 13:30N 41°19' E 002°09'0 0.4
2018-Jun-09 12:58N 41°19' E 002°09'0 0.0
2018-Jun-09 12:28N 41°19' E 002°09'0 0.0
2018-Jun-09 11:58N 41°19' E 002°09'0 0.0
2018-Jun-09 11:28N 41°19' E 002°09'0 0.0
2018-Jun-09 10:58N 41°19' E 002°09'0 0.0
2018-Jun-09 10:28N 41°19' E 002°09'0 0.0
2018-Jun-09 09:58N 41°19' E 002°09'0 0.0
2018-Jun-09 09:28N 41°19' E 002°09'0 0.0
2018-Jun-09 08:58N 41°19' E 002°09'0 0.0
2018-Jun-09 08:28N 41°19' E 002°09'0 0.0
2018-Jun-09 07:58N 41°19' E 002°09'0 0.0
2018-Jun-09 07:28N 41°19' E 002°09'0 0.0
2018-Jun-09 06:58N 41°19' E 002°09'0 0.0
2018-Jun-09 06:28N 41°19' E 002°09'0 0.0
2018-Jun-09 05:58N 41°19' E 002°09'0 0.0
2018-Jun-09 05:29N 41°19' E 002°09'2 3.9
2018-Jun-09 05:00N 41°17' E 002°11'4 7.7
2018-Jun-09 04:30N 41°14' E 002°14'4 7.5
2018-Jun-09 04:01N 41°12' E 002°18'0 0.5
2018-Jun-09 03:30N 41°12' E 002°17'0 0.2
2018-Jun-09 02:59N 41°12' E 002°17'0 0.1
2018-Jun-09 02:30N 41°12' E 002°17'0 0.1
2018-Jun-09 02:00N 41°12' E 002°17'0 0.3
2018-Jun-09 01:29N 41°12' E 002°17'0 0.4
2018-Jun-09 01:00N 41°12' E 002°17'0 0.2
2018-Jun-09 00:30N 41°12' E 002°17'0 0.5
2018-Jun-09 00:00N 41°13' E 002°17'0 0.6
2018-Jun-08 23:30N 41°13' E 002°16'0 0.5
2018-Jun-08 23:00N 41°13' E 002°16'0 0.5
2018-Jun-08 22:30N 41°13' E 002°16'0 0.6
2018-Jun-08 22:00N 41°13' E 002°15'0 0.7
2018-Jun-08 21:30N 41°13' E 002°15'0 0.7
2018-Jun-08 21:00N 41°13' E 002°14'0 0.6
2018-Jun-08 20:30N 41°13' E 002°14'0 0.6
2018-Jun-08 20:00N 41°13' E 002°13'0 0.7
2018-Jun-08 19:30N 41°13' E 002°13'0 0.7
2018-Jun-08 19:00N 41°13' E 002°13'0 0.8
2018-Jun-08 18:30N 41°13' E 002°12'1 1.0
2018-Jun-08 18:00N 41°13' E 002°11'1 1.0
2018-Jun-08 17:30N 41°13' E 002°11'1 1.1
2018-Jun-08 17:00N 41°12' E 002°10'1 1.1
2018-Jun-08 16:30N 41°12' E 002°09'1 1.1
2018-Jun-08 16:00N 41°12' E 002°09'2 4.5
2018-Jun-08 15:30N 41°11' E 002°06'713.1
2018-Jun-08 15:00N 41°05' E 002°01'612.9
2018-Jun-08 14:30N 40°60' E 001°57'712.9
2018-Jun-08 13:59N 40°54' E 001°52'14612.9
2018-Jun-08 02:44N 38°44' E 000°28'412.8
2018-Jun-08 02:26N 38°40' E 000°26'512.7
2018-Jun-08 02:00N 38°35' E 000°23'712.7
2018-Jun-08 01:29N 38°29' E 000°21'613.0
2018-Jun-08 01:00N 38°23' E 000°19'713.2
2018-Jun-08 00:30N 38°16' E 000°17'713.1
2018-Jun-08 00:00N 38°10' E 000°15'713.1
2018-Jun-07 23:30N 38°04' E 000°12'713.1
2018-Jun-07 23:00N 37°57' E 000°11'713.2
2018-Jun-07 22:30N 37°51' E 000°08'713.4
2018-Jun-07 21:59N 37°44' E 000°07'613.4
2018-Jun-07 21:30N 37°38' E 000°05'  

Dump ship's entire track history